createdAt,value
2018-05-24T00:00:27.684Z,0
2018-05-24T00:01:29.080Z,0
2018-05-24T00:02:30.454Z,0
2018-05-24T00:03:31.842Z,0
2018-05-24T00:04:33.240Z,0
2018-05-24T00:05:34.625Z,0
2018-05-24T00:06:36.007Z,0
2018-05-24T00:07:37.387Z,0
2018-05-24T00:08:38.777Z,0
2018-05-24T00:09:40.171Z,0
2018-05-24T00:10:41.551Z,0
2018-05-24T00:11:42.937Z,0
2018-05-24T00:12:44.321Z,0
2018-05-24T00:13:45.712Z,0
2018-05-24T00:14:47.091Z,0
2018-05-24T00:15:48.501Z,0
2018-05-24T00:16:49.890Z,0
2018-05-24T00:17:51.263Z,0
2018-05-24T00:18:52.654Z,0
2018-05-24T00:19:54.034Z,0
2018-05-24T00:20:55.416Z,0
2018-05-24T00:21:56.793Z,0
2018-05-24T00:22:58.185Z,0
2018-05-24T00:23:59.576Z,0
2018-05-24T00:25:00.962Z,0
2018-05-24T00:26:02.354Z,0
2018-05-24T00:27:03.729Z,0
2018-05-24T00:28:05.109Z,0
2018-05-24T00:29:06.506Z,0
2018-05-24T00:30:07.896Z,0
2018-05-24T00:31:09.275Z,0
2018-05-24T00:32:10.658Z,0
2018-05-24T00:33:12.041Z,0
2018-05-24T00:34:13.426Z,0
2018-05-24T00:35:14.806Z,0
2018-05-24T00:36:16.193Z,0
2018-05-24T00:37:17.562Z,0
2018-05-24T00:38:18.946Z,0
2018-05-24T00:39:20.327Z,0
2018-05-24T00:40:21.714Z,0
2018-05-24T00:41:23.102Z,0
2018-05-24T00:42:24.466Z,0
2018-05-24T00:43:25.858Z,0
2018-05-24T00:44:27.248Z,0
2018-05-24T00:45:28.642Z,0
2018-05-24T00:46:30.016Z,0
2018-05-24T00:47:31.412Z,0
2018-05-24T00:48:32.796Z,0
2018-05-24T00:49:34.176Z,0
2018-05-24T00:50:35.562Z,0
2018-05-24T00:51:36.951Z,0
2018-05-24T00:52:38.328Z,0
2018-05-24T00:53:39.714Z,0
2018-05-24T00:54:41.968Z,0
2018-05-24T00:55:43.313Z,0
2018-05-24T00:56:44.704Z,0
2018-05-24T00:57:46.095Z,0
2018-05-24T00:58:47.477Z,0
2018-05-24T00:59:48.865Z,0
2018-05-24T01:00:50.245Z,0
2018-05-24T01:01:51.627Z,0
2018-05-24T01:02:53.007Z,0
2018-05-24T01:03:54.391Z,0
2018-05-24T01:04:55.781Z,0
2018-05-24T01:05:57.171Z,0
2018-05-24T01:06:58.560Z,0
2018-05-24T01:07:59.935Z,0
2018-05-24T01:09:01.322Z,0
2018-05-24T01:10:02.711Z,0
2018-05-24T01:11:04.096Z,0
2018-05-24T01:12:05.472Z,0
2018-05-24T01:13:06.855Z,0
2018-05-24T01:14:08.242Z,0
2018-05-24T01:15:09.617Z,0
2018-05-24T01:16:11.003Z,0
2018-05-24T01:17:12.379Z,0
2018-05-24T01:18:13.767Z,0
2018-05-24T01:19:15.147Z,0
2018-05-24T01:20:16.527Z,0
2018-05-24T01:21:17.904Z,0
2018-05-24T01:22:19.293Z,0
2018-05-24T01:23:20.681Z,0
2018-05-24T01:24:22.061Z,0
2018-05-24T01:25:23.443Z,0
2018-05-24T01:26:24.832Z,0
2018-05-24T01:27:26.217Z,0
2018-05-24T01:28:27.607Z,0
2018-05-24T01:29:28.992Z,0
2018-05-24T01:30:30.367Z,0
2018-05-24T01:31:31.751Z,0
2018-05-24T01:32:33.136Z,0
2018-05-24T01:33:34.530Z,0
2018-05-24T01:34:35.906Z,0
2018-05-24T01:35:37.296Z,0
2018-05-24T01:36:38.684Z,0
2018-05-24T01:37:40.060Z,0
2018-05-24T01:38:41.447Z,0
2018-05-24T01:39:42.834Z,0
2018-05-24T01:40:44.225Z,0
2018-05-24T01:41:45.600Z,0
2018-05-24T01:42:46.980Z,0
2018-05-24T01:43:48.363Z,0
2018-05-24T01:44:49.747Z,0
2018-05-24T01:45:51.129Z,0
2018-05-24T01:46:52.513Z,0
2018-05-24T01:47:53.891Z,0
2018-05-24T01:48:55.272Z,0
2018-05-24T01:49:56.669Z,0
2018-05-24T01:50:58.062Z,0
2018-05-24T01:51:59.982Z,0
2018-05-24T01:53:01.368Z,0
2018-05-24T01:54:02.760Z,0
2018-05-24T01:55:04.138Z,0
2018-05-24T01:56:05.515Z,0
2018-05-24T01:57:06.908Z,0
2018-05-24T01:58:08.298Z,0
2018-05-24T01:59:09.698Z,0
2018-05-24T02:00:11.075Z,0
2018-05-24T02:01:12.450Z,0
2018-05-24T02:02:13.832Z,0
2018-05-24T02:03:15.216Z,0
2018-05-24T02:04:16.595Z,0
2018-05-24T02:05:17.982Z,0
2018-05-24T02:06:19.365Z,0
2018-05-24T02:07:20.748Z,0
2018-05-24T02:08:22.131Z,0
2018-05-24T02:09:23.529Z,0
2018-05-24T02:10:24.905Z,0
2018-05-24T02:11:26.288Z,0
2018-05-24T02:12:27.675Z,0
2018-05-24T02:13:30.038Z,0
2018-05-24T02:14:31.420Z,0
2018-05-24T02:15:32.809Z,0
2018-05-24T02:16:34.191Z,4
2018-05-24T02:17:35.570Z,4
2018-05-24T02:18:36.969Z,0
2018-05-24T02:19:38.351Z,0
2018-05-24T02:20:40.782Z,0
2018-05-24T02:21:42.046Z,4
2018-05-24T02:22:43.434Z,0
2018-05-24T02:23:44.806Z,4
2018-05-24T02:24:46.191Z,4
2018-05-24T02:25:47.572Z,4
2018-05-24T02:26:48.948Z,4
2018-05-24T02:27:50.329Z,4
2018-05-24T02:28:51.705Z,4
2018-05-24T02:29:53.110Z,4
2018-05-24T02:30:54.501Z,4
2018-05-24T02:31:55.871Z,8
2018-05-24T02:32:57.267Z,8
2018-05-24T02:33:58.648Z,8
2018-05-24T02:35:00.038Z,12
2018-05-24T02:36:01.532Z,12
2018-05-24T02:37:02.787Z,16
2018-05-24T02:38:04.171Z,12
2018-05-24T02:39:05.564Z,16
2018-05-24T02:40:06.937Z,20
2018-05-24T02:41:08.322Z,20
2018-05-24T02:42:09.715Z,20
2018-05-24T02:43:11.095Z,24
2018-05-24T02:44:12.480Z,24
2018-05-24T02:45:13.876Z,28
2018-05-24T02:46:15.256Z,32
2018-05-24T02:47:16.645Z,36
2018-05-24T02:48:18.032Z,36
2018-05-24T02:49:19.433Z,44
2018-05-24T02:50:20.808Z,48
2018-05-24T02:51:22.193Z,52
2018-05-24T02:52:23.673Z,56
2018-05-24T02:53:24.973Z,60
2018-05-24T02:54:26.360Z,68
2018-05-24T02:55:27.749Z,68
2018-05-24T02:56:29.125Z,76
2018-05-24T02:57:30.523Z,80
2018-05-24T02:58:31.903Z,88
2018-05-24T02:59:33.284Z,92
2018-05-24T03:00:34.671Z,100
2018-05-24T03:01:36.071Z,108
2018-05-24T03:02:37.450Z,112
2018-05-24T03:03:38.833Z,120
2018-05-24T03:04:40.215Z,132
2018-05-24T03:05:41.606Z,136
2018-05-24T03:06:42.992Z,144
2018-05-24T03:07:44.365Z,152
2018-05-24T03:08:45.760Z,164
2018-05-24T03:09:47.141Z,176
2018-05-24T03:10:48.526Z,180
2018-05-24T03:11:49.914Z,192
2018-05-24T03:12:51.295Z,200
2018-05-24T03:13:52.676Z,212
2018-05-24T03:14:54.070Z,224
2018-05-24T03:15:55.463Z,232
2018-05-24T03:16:56.850Z,240
2018-05-24T03:17:58.242Z,252
2018-05-24T03:18:59.613Z,260
2018-05-24T03:20:01.009Z,276
2018-05-24T03:21:02.389Z,288
2018-05-24T03:22:03.783Z,300
2018-05-24T03:23:05.161Z,324
2018-05-24T03:24:06.565Z,352
2018-05-24T03:25:07.939Z,376
2018-05-24T03:26:09.329Z,400
2018-05-24T03:27:10.709Z,424
2018-05-24T03:28:12.101Z,440
2018-05-24T03:29:13.493Z,460
2018-05-24T03:30:14.885Z,476
2018-05-24T03:31:16.265Z,488
2018-05-24T03:32:17.649Z,508
2018-05-24T03:33:19.801Z,520
2018-05-24T03:34:21.195Z,544
2018-05-24T03:35:22.590Z,564
2018-05-24T03:36:23.966Z,596
2018-05-24T03:37:25.350Z,624
2018-05-24T03:38:26.742Z,652
2018-05-24T03:39:28.128Z,684
2018-05-24T03:40:29.520Z,716
2018-05-24T03:41:30.894Z,744
2018-05-24T03:42:32.276Z,776
2018-05-24T03:43:33.661Z,804
2018-05-24T03:44:35.052Z,836
2018-05-24T03:45:36.430Z,864
2018-05-24T03:46:37.832Z,896
2018-05-24T03:47:39.207Z,928
2018-05-24T03:48:40.592Z,952
2018-05-24T03:49:41.969Z,976
2018-05-24T03:50:43.364Z,1000
2018-05-24T03:51:44.748Z,1024
2018-05-24T03:52:46.134Z,1052
2018-05-24T03:53:47.544Z,1072
2018-05-24T03:54:49.600Z,1108
2018-05-24T03:55:50.974Z,1132
2018-05-24T03:56:52.363Z,1168
2018-05-24T03:57:53.816Z,1208
2018-05-24T03:58:55.147Z,1232
2018-05-24T03:59:56.537Z,1260
2018-05-24T04:00:57.930Z,1284
2018-05-24T04:01:59.313Z,1300
2018-05-24T04:03:00.707Z,1324
2018-05-24T04:04:02.093Z,1348
2018-05-24T04:05:03.480Z,1372
2018-05-24T04:06:04.875Z,1384
2018-05-24T04:07:06.266Z,1404
2018-05-24T04:08:07.665Z,1432
2018-05-24T04:09:09.056Z,1476
2018-05-24T04:10:10.446Z,1488
2018-05-24T04:11:11.826Z,1516
2018-05-24T04:12:13.218Z,1520
2018-05-24T04:13:14.610Z,1584
2018-05-24T04:14:16.004Z,1604
2018-05-24T04:15:17.398Z,1624
2018-05-24T04:16:18.772Z,1644
2018-05-24T04:17:20.174Z,1680
2018-05-24T04:18:21.560Z,1688
2018-05-24T04:19:22.961Z,1716
2018-05-24T04:20:24.346Z,1732
2018-05-24T04:21:25.740Z,1744
2018-05-24T04:22:27.147Z,1784
2018-05-24T04:23:28.547Z,1804
2018-05-24T04:24:29.933Z,1820
2018-05-24T04:25:31.314Z,1856
2018-05-24T04:26:32.710Z,1896
2018-05-24T04:27:34.093Z,1868
2018-05-24T04:28:35.487Z,1976
2018-05-24T04:29:36.883Z,2068
2018-05-24T04:30:38.271Z,2144
2018-05-24T04:31:39.663Z,2176
2018-05-24T04:32:41.068Z,2296
2018-05-24T04:33:42.471Z,2348
2018-05-24T04:34:43.861Z,2432
2018-05-24T04:35:45.248Z,2552
2018-05-24T04:36:46.635Z,4616
2018-05-24T04:37:48.026Z,3028
2018-05-24T04:38:49.426Z,3644
2018-05-24T04:39:50.820Z,5064
2018-05-24T04:40:52.216Z,6540
2018-05-24T04:41:53.603Z,7600
2018-05-24T04:42:55.006Z,8496
2018-05-24T04:43:56.392Z,8560
2018-05-24T04:44:57.784Z,8724
2018-05-24T04:45:59.178Z,8680
2018-05-24T04:47:00.592Z,8820
2018-05-24T04:48:01.966Z,9044
2018-05-24T04:49:03.365Z,9364
2018-05-24T04:50:04.782Z,9592
2018-05-24T04:51:06.166Z,9900
2018-05-24T04:52:07.567Z,10128
2018-05-24T04:53:08.965Z,9756
2018-05-24T04:54:10.364Z,7528
2018-05-24T04:55:11.753Z,5624
2018-05-24T04:56:13.144Z,7092
2018-05-24T04:57:14.543Z,9260
2018-05-24T04:58:15.944Z,9068
2018-05-24T04:59:17.335Z,8560
2018-05-24T05:00:18.739Z,7368
2018-05-24T05:01:20.138Z,6296
2018-05-24T05:02:21.527Z,8544
2018-05-24T05:03:22.921Z,10608
2018-05-24T05:04:25.200Z,8968
2018-05-24T05:05:26.594Z,6560
2018-05-24T05:06:27.998Z,5140
2018-05-24T05:07:29.394Z,4628
2018-05-24T05:08:30.801Z,4544
2018-05-24T05:09:32.196Z,4584
2018-05-24T05:10:33.595Z,4732
2018-05-24T05:11:34.995Z,4676
2018-05-24T05:12:36.390Z,4916
2018-05-24T05:13:37.784Z,4516
2018-05-24T05:14:39.223Z,4608
2018-05-24T05:15:40.592Z,4580
2018-05-24T05:16:42.000Z,4288
2018-05-24T05:17:43.386Z,4148
2018-05-24T05:18:44.791Z,3984
2018-05-24T05:19:46.238Z,3916
2018-05-24T05:20:47.645Z,3856
2018-05-24T05:21:49.045Z,3944
2018-05-24T05:22:50.437Z,4308
2018-05-24T05:23:51.840Z,4472
2018-05-24T05:24:53.233Z,5972
2018-05-24T05:25:54.626Z,11512
2018-05-24T05:26:56.025Z,17248
2018-05-24T05:27:57.426Z,19040
2018-05-24T05:28:58.831Z,20320
2018-05-24T05:30:00.231Z,19648
2018-05-24T05:31:01.621Z,20576
2018-05-24T05:32:03.017Z,21984
2018-05-24T05:33:04.420Z,23040
2018-05-24T05:34:05.816Z,22816
2018-05-24T05:35:07.204Z,23360
2018-05-24T05:36:08.600Z,22944
2018-05-24T05:37:10.004Z,20800
2018-05-24T05:38:11.411Z,18688
2018-05-24T05:39:12.802Z,17664
2018-05-24T05:40:14.208Z,5412
2018-05-24T05:41:15.597Z,10120
2018-05-24T05:42:17.001Z,20288
2018-05-24T05:43:18.404Z,20224
2018-05-24T05:44:19.809Z,20256
2018-05-24T05:45:21.206Z,18688
2018-05-24T05:46:22.606Z,20992
2018-05-24T05:47:24.007Z,24832
2018-05-24T05:48:25.418Z,28320
2018-05-24T05:49:26.816Z,27616
2018-05-24T05:50:28.228Z,28928
2018-05-24T05:51:29.631Z,23424
2018-05-24T05:52:31.046Z,26048
2018-05-24T05:53:32.460Z,20032
2018-05-24T05:54:33.867Z,27680
2018-05-24T05:55:35.277Z,21472
2018-05-24T05:56:36.684Z,17376
2018-05-24T05:57:38.090Z,10248
2018-05-24T05:58:39.500Z,25600
2018-05-24T05:59:40.910Z,8600
2018-05-24T06:00:42.316Z,8440
2018-05-24T06:01:43.813Z,8716
2018-05-24T06:02:45.791Z,8804
2018-05-24T06:03:47.203Z,8468
2018-05-24T06:04:48.600Z,8320
2018-05-24T06:05:50.010Z,8280
2018-05-24T06:06:51.414Z,7336
2018-05-24T06:07:52.816Z,8160
2018-05-24T06:08:54.218Z,8056
2018-05-24T06:09:55.615Z,8260
2018-05-24T06:10:57.065Z,7996
2018-05-24T06:11:58.458Z,7776
2018-05-24T06:12:59.869Z,8316
2018-05-24T06:14:01.264Z,7804
2018-05-24T06:15:02.683Z,7520
2018-05-24T06:16:04.085Z,8236
2018-05-24T06:17:05.494Z,7672
2018-05-24T06:18:06.901Z,7736
2018-05-24T06:19:08.307Z,8556
2018-05-24T06:20:09.715Z,8112
2018-05-24T06:21:11.101Z,9120
2018-05-24T06:22:12.504Z,8572
2018-05-24T06:23:13.908Z,8872
2018-05-24T06:24:15.314Z,9136
2018-05-24T06:25:17.420Z,9788
2018-05-24T06:26:18.062Z,9652
2018-05-24T06:27:19.460Z,8876
2018-05-24T06:28:20.864Z,9168
2018-05-24T06:29:22.258Z,9288
2018-05-24T06:30:23.651Z,9724
2018-05-24T06:31:25.057Z,10256
2018-05-24T06:32:26.458Z,9252
2018-05-24T06:33:27.848Z,8676
2018-05-24T06:34:29.246Z,8820
2018-05-24T06:35:30.652Z,8812
2018-05-24T06:36:32.050Z,8236
2018-05-24T06:37:33.475Z,7820
2018-05-24T06:38:34.853Z,7996
2018-05-24T06:39:36.241Z,8260
2018-05-24T06:40:37.679Z,8000
2018-05-24T06:41:39.040Z,8808
2018-05-24T06:42:40.432Z,8124
2018-05-24T06:43:41.831Z,9024
2018-05-24T06:44:43.224Z,9288
2018-05-24T06:45:44.621Z,11384
2018-05-24T06:46:46.038Z,4844
2018-05-24T06:47:47.412Z,8492
2018-05-24T06:48:48.806Z,9200
2018-05-24T06:49:50.210Z,9260
2018-05-24T06:50:51.601Z,8096
2018-05-24T06:51:53.006Z,5972
2018-05-24T06:52:54.409Z,9652
2018-05-24T06:53:55.811Z,6492
2018-05-24T06:54:57.210Z,10208
2018-05-24T06:55:58.605Z,9952
2018-05-24T06:57:00.001Z,6352
2018-05-24T06:58:01.404Z,5560
2018-05-24T06:59:02.808Z,6164
2018-05-24T07:00:04.942Z,6248
2018-05-24T07:01:06.340Z,1132
2018-05-24T07:02:07.734Z,7208
2018-05-24T07:03:09.136Z,5996
2018-05-24T07:04:10.534Z,7400
2018-05-24T07:05:11.918Z,4348
2018-05-24T07:06:13.320Z,14064
2018-05-24T07:07:14.720Z,4644
2018-05-24T07:08:16.125Z,4956
2018-05-24T07:09:17.518Z,3300
2018-05-24T07:10:18.924Z,4948
2018-05-24T07:11:20.314Z,4540
2018-05-24T07:12:21.719Z,5012
2018-05-24T07:13:23.121Z,4864
2018-05-24T07:14:24.517Z,5132
2018-05-24T07:15:25.917Z,4560
2018-05-24T07:16:27.304Z,4748
2018-05-24T07:17:28.702Z,4512
2018-05-24T07:18:30.103Z,4688
2018-05-24T07:19:31.490Z,4600
2018-05-24T07:20:32.890Z,12132
2018-05-24T07:21:34.282Z,16832
2018-05-24T07:22:35.690Z,4820
2018-05-24T07:23:37.095Z,4684
2018-05-24T07:24:38.563Z,4596
2018-05-24T07:25:39.891Z,5180
2018-05-24T07:26:41.286Z,4700
2018-05-24T07:27:42.696Z,4700
2018-05-24T07:28:44.095Z,4540
2018-05-24T07:29:45.495Z,4656
2018-05-24T07:30:46.883Z,5004
2018-05-24T07:31:48.888Z,4372
2018-05-24T07:32:50.292Z,4576
2018-05-24T07:33:51.671Z,4028
2018-05-24T07:34:53.094Z,4536
2018-05-24T07:35:54.475Z,4440
2018-05-24T07:36:55.885Z,6856
2018-05-24T07:37:57.275Z,4536
2018-05-24T07:38:58.668Z,4464
2018-05-24T07:40:00.067Z,4468
2018-05-24T07:41:01.465Z,4496
2018-05-24T07:42:02.863Z,4204
2018-05-24T07:43:04.253Z,4512
2018-05-24T07:44:05.661Z,4520
2018-05-24T07:45:07.146Z,4304
2018-05-24T07:46:08.452Z,4468
2018-05-24T07:47:09.856Z,4500
2018-05-24T07:48:11.249Z,4504
2018-05-24T07:49:12.655Z,4216
2018-05-24T07:50:14.041Z,4528
2018-05-24T07:51:15.444Z,5096
2018-05-24T07:52:16.847Z,4336
2018-05-24T07:53:18.242Z,4692
2018-05-24T07:54:19.651Z,4588
2018-05-24T07:55:21.050Z,4524
2018-05-24T07:56:22.449Z,4824
2018-05-24T07:57:23.849Z,4360
2018-05-24T07:58:25.249Z,4588
2018-05-24T07:59:26.636Z,4488
2018-05-24T08:00:28.046Z,4096
2018-05-24T08:01:29.434Z,4448
2018-05-24T08:02:30.825Z,4348
2018-05-24T08:03:32.225Z,4320
2018-05-24T08:04:33.619Z,4408
2018-05-24T08:05:35.021Z,4348
2018-05-24T08:06:36.420Z,4216
2018-05-24T08:07:37.821Z,4376
2018-05-24T08:08:39.306Z,492
2018-05-24T08:09:40.619Z,4404
2018-05-24T08:10:42.027Z,4480
2018-05-24T08:11:43.427Z,4456
2018-05-24T08:12:44.812Z,4388
2018-05-24T08:13:46.219Z,4624
2018-05-24T08:14:47.678Z,4336
2018-05-24T08:15:48.958Z,4164
2018-05-24T08:16:50.361Z,4612
2018-05-24T08:17:51.758Z,4296
2018-05-24T08:18:53.155Z,4324
2018-05-24T08:19:54.552Z,4028
2018-05-24T08:20:55.947Z,3984
2018-05-24T08:21:57.342Z,3980
2018-05-24T08:22:58.742Z,3892
2018-05-24T08:24:00.138Z,4204
2018-05-24T08:25:01.542Z,3992
2018-05-24T08:26:02.950Z,4048
2018-05-24T08:27:04.348Z,4052
2018-05-24T08:28:05.738Z,3996
2018-05-24T08:29:07.136Z,3980
2018-05-24T08:30:08.540Z,4432
2018-05-24T08:31:09.945Z,4064
2018-05-24T08:32:11.358Z,4128
2018-05-24T08:33:12.753Z,4020
2018-05-24T08:34:14.143Z,3908
2018-05-24T08:35:15.592Z,3960
2018-05-24T08:36:16.925Z,4156
2018-05-24T08:37:18.327Z,3984
2018-05-24T08:38:19.723Z,4192
2018-05-24T08:39:21.134Z,3988
2018-05-24T08:40:22.533Z,4012
2018-05-24T08:41:23.925Z,4000
2018-05-24T08:42:25.315Z,3976
2018-05-24T08:43:26.728Z,4152
2018-05-24T08:44:28.125Z,3872
2018-05-24T08:45:29.517Z,3816
2018-05-24T08:46:30.930Z,3732
2018-05-24T08:47:32.322Z,3700
2018-05-24T08:48:33.715Z,3988
2018-05-24T08:49:35.114Z,3688
2018-05-24T08:50:36.503Z,3700
2018-05-24T08:51:37.908Z,3964
2018-05-24T08:52:39.304Z,3908
2018-05-24T08:53:40.700Z,3608
2018-05-24T08:54:42.106Z,3652
2018-05-24T08:55:43.503Z,3644
2018-05-24T08:56:44.900Z,3956
2018-05-24T08:57:46.295Z,3748
2018-05-24T08:58:47.689Z,3852
2018-05-24T08:59:49.096Z,3608
2018-05-24T09:00:50.489Z,4116
2018-05-24T09:01:51.899Z,3212
2018-05-24T09:02:53.299Z,3884
2018-05-24T09:03:54.689Z,3540
2018-05-24T09:04:56.091Z,3700
2018-05-24T09:05:57.481Z,3776
2018-05-24T09:06:58.893Z,3884
2018-05-24T09:08:00.293Z,3856
2018-05-24T09:09:01.776Z,2384
2018-05-24T09:10:03.113Z,3832
2018-05-24T09:11:04.517Z,3920
2018-05-24T09:12:05.926Z,3664
2018-05-24T09:13:07.331Z,3840
2018-05-24T09:14:08.733Z,3792
2018-05-24T09:15:10.134Z,4256
2018-05-24T09:16:11.529Z,4788
2018-05-24T09:17:12.926Z,3048
2018-05-24T09:18:14.328Z,4352
2018-05-24T09:19:15.720Z,4168
2018-05-24T09:20:17.199Z,4196
2018-05-24T09:21:18.480Z,4104
2018-05-24T09:22:19.869Z,3724
2018-05-24T09:23:21.275Z,3804
2018-05-24T09:24:22.676Z,3944
2018-05-24T09:25:24.063Z,3860
2018-05-24T09:26:25.461Z,3944
2018-05-24T09:27:26.865Z,4300
2018-05-24T09:28:28.271Z,5064
2018-05-24T09:29:29.727Z,5100
2018-05-24T09:30:31.055Z,4032
2018-05-24T09:31:32.467Z,4156
2018-05-24T09:32:33.871Z,4056
2018-05-24T09:33:35.273Z,4164
2018-05-24T09:34:36.660Z,4360
2018-05-24T09:35:38.061Z,4488
2018-05-24T09:36:39.464Z,4124
2018-05-24T09:37:40.873Z,4080
2018-05-24T09:38:42.264Z,3900
2018-05-24T09:39:43.667Z,4032
2018-05-24T09:40:45.083Z,3992
2018-05-24T09:41:46.477Z,3860
2018-05-24T09:42:47.883Z,3556
2018-05-24T09:43:49.277Z,3196
2018-05-24T09:44:50.684Z,3296
2018-05-24T09:45:52.086Z,3224
2018-05-24T09:46:53.453Z,3240
2018-05-24T09:47:54.854Z,3336
2018-05-24T09:48:56.264Z,2988
2018-05-24T09:49:57.650Z,3088
2018-05-24T09:50:59.052Z,2320
2018-05-24T09:52:00.443Z,3452
2018-05-24T09:53:01.844Z,3576
2018-05-24T09:54:03.240Z,3064
2018-05-24T09:55:04.643Z,3084
2018-05-24T09:56:06.105Z,2908
2018-05-24T09:57:07.434Z,2920
2018-05-24T09:58:08.831Z,2988
2018-05-24T09:59:10.227Z,3108
2018-05-24T10:00:11.621Z,2928
2018-05-24T10:01:13.032Z,2960
2018-05-24T10:02:14.425Z,3312
2018-05-24T10:03:15.819Z,3548
2018-05-24T10:04:17.201Z,3640
2018-05-24T10:05:18.599Z,3224
2018-05-24T10:06:19.993Z,3088
2018-05-24T10:07:21.404Z,2860
2018-05-24T10:08:22.808Z,2948
2018-05-24T10:09:24.197Z,2836
2018-05-24T10:10:25.602Z,2832
2018-05-24T10:11:26.979Z,2880
2018-05-24T10:12:28.374Z,2864
2018-05-24T10:13:29.776Z,3056
2018-05-24T10:14:31.176Z,2844
2018-05-24T10:15:32.588Z,3024
2018-05-24T10:16:34.065Z,3000
2018-05-24T10:17:35.334Z,3068
2018-05-24T10:18:36.723Z,3016
2018-05-24T10:19:38.124Z,2924
2018-05-24T10:20:39.527Z,3088
2018-05-24T10:21:40.928Z,2956
2018-05-24T10:22:42.317Z,2936
2018-05-24T10:23:43.713Z,2968
2018-05-24T10:24:45.123Z,2944
2018-05-24T10:25:46.528Z,3032
2018-05-24T10:26:47.930Z,3056
2018-05-24T10:27:49.329Z,3128
2018-05-24T10:28:50.729Z,3108
2018-05-24T10:29:52.173Z,3124
2018-05-24T10:30:53.571Z,2964
2018-05-24T10:31:54.954Z,3028
2018-05-24T10:32:56.356Z,3076
2018-05-24T10:33:57.763Z,3276
2018-05-24T10:34:59.152Z,3136
2018-05-24T10:36:00.580Z,3136
2018-05-24T10:37:01.988Z,3132
2018-05-24T10:38:03.381Z,3260
2018-05-24T10:39:04.815Z,3168
2018-05-24T10:40:06.219Z,3088
2018-05-24T10:41:07.611Z,3140
2018-05-24T10:42:09.626Z,3292
2018-05-24T10:43:11.058Z,3068
2018-05-24T10:44:12.450Z,3092
2018-05-24T10:45:13.889Z,3040
2018-05-24T10:46:15.300Z,3296
2018-05-24T10:47:16.709Z,3120
2018-05-24T10:48:18.140Z,2928
2018-05-24T10:49:19.538Z,2992
2018-05-24T10:50:20.920Z,2928
2018-05-24T10:51:22.376Z,2992
2018-05-24T10:52:23.723Z,3076
2018-05-24T10:53:25.136Z,3480
2018-05-24T10:54:27.547Z,3344
2018-05-24T10:55:28.943Z,3344
2018-05-24T10:56:30.341Z,3352
2018-05-24T10:57:31.749Z,3380
2018-05-24T10:58:33.153Z,3396
2018-05-24T10:59:34.632Z,3384
2018-05-24T11:00:35.961Z,3476
2018-05-24T11:01:37.347Z,3536
2018-05-24T11:02:38.796Z,3596
2018-05-24T11:03:40.149Z,4828
2018-05-24T11:04:41.541Z,7496
2018-05-24T11:05:42.939Z,9804
2018-05-24T11:06:44.347Z,9004
2018-05-24T11:07:45.752Z,8528
2018-05-24T11:08:47.153Z,8200
2018-05-24T11:09:48.538Z,10268
2018-05-24T11:10:50.339Z,11368
2018-05-24T11:11:51.746Z,9476
2018-05-24T11:12:53.148Z,9648
2018-05-24T11:13:54.558Z,12728
2018-05-24T11:14:55.964Z,10236
2018-05-24T11:15:57.374Z,10432
2018-05-24T11:16:58.779Z,12320
2018-05-24T11:18:00.172Z,10816
2018-05-24T11:19:01.581Z,10768
2018-05-24T11:20:02.976Z,8928
2018-05-24T11:21:04.376Z,27168
2018-05-24T11:22:05.766Z,62432
2018-05-24T11:23:07.175Z,92288
2018-05-24T11:24:08.576Z,86592
2018-05-24T11:25:10.032Z,90400
2018-05-24T11:26:11.329Z,107040
2018-05-24T11:27:12.737Z,112032
2018-05-24T11:28:14.144Z,107200
2018-05-24T11:29:15.537Z,99712
2018-05-24T11:30:16.929Z,96928
2018-05-24T11:31:18.328Z,91680
2018-05-24T11:32:19.743Z,87264
2018-05-24T11:33:21.160Z,86528
2018-05-24T11:34:22.569Z,91584
2018-05-24T11:35:23.962Z,101184
2018-05-24T11:36:25.363Z,102528
2018-05-24T11:37:26.755Z,95552
2018-05-24T11:38:28.165Z,81760
2018-05-24T11:39:29.564Z,79488
2018-05-24T11:40:30.980Z,92992
2018-05-24T11:41:32.376Z,109760
2018-05-24T11:42:33.787Z,115840
2018-05-24T11:43:35.192Z,111936
2018-05-24T11:44:36.597Z,101696
2018-05-24T11:45:38.002Z,95584
2018-05-24T11:46:39.412Z,92992
2018-05-24T11:47:40.813Z,96064
2018-05-24T11:48:42.229Z,100864
2018-05-24T11:49:43.626Z,102144
2018-05-24T11:50:45.040Z,101824
2018-05-24T11:51:46.434Z,105152
2018-05-24T11:52:47.842Z,111200
2018-05-24T11:53:49.239Z,112768
2018-05-24T11:54:51.333Z,110560
2018-05-24T11:55:52.738Z,104832
2018-05-24T11:56:54.130Z,18528
2018-05-24T11:57:55.535Z,99744
2018-05-24T11:58:56.947Z,95936
2018-05-24T11:59:58.343Z,91104
2018-05-24T12:00:59.754Z,85248
2018-05-24T12:02:01.157Z,84128
2018-05-24T12:03:02.560Z,80128
2018-05-24T12:04:03.967Z,67232
2018-05-24T12:05:05.375Z,81024
2018-05-24T12:06:06.782Z,72096
2018-05-24T12:07:08.218Z,110048
2018-05-24T12:08:09.647Z,114912
2018-05-24T12:09:11.059Z,108320
2018-05-24T12:10:12.462Z,102560
2018-05-24T12:11:13.863Z,103712
2018-05-24T12:12:15.267Z,108096
2018-05-24T12:13:16.673Z,84736
2018-05-24T12:14:18.076Z,99328
2018-05-24T12:15:19.547Z,106144
2018-05-24T12:16:20.848Z,110784
2018-05-24T12:17:23.208Z,111200
2018-05-24T12:18:24.612Z,109504
2018-05-24T12:19:26.009Z,108928
2018-05-24T12:20:27.410Z,77728
2018-05-24T12:21:28.817Z,61440
2018-05-24T12:22:30.215Z,52416
2018-05-24T12:23:31.614Z,23712
2018-05-24T12:24:33.011Z,60960
2018-05-24T12:25:34.417Z,106752
2018-05-24T12:26:35.817Z,107328
2018-05-24T12:27:37.219Z,104640
2018-05-24T12:28:38.618Z,106528
2018-05-24T12:29:40.020Z,104416
2018-05-24T12:30:41.420Z,100640
2018-05-24T12:31:42.820Z,85120
2018-05-24T12:32:44.226Z,56704
2018-05-24T12:33:45.639Z,27648
2018-05-24T12:34:47.027Z,6988
2018-05-24T12:35:48.431Z,5064
2018-05-24T12:36:49.833Z,4404
2018-05-24T12:37:51.262Z,3676
2018-05-24T12:38:52.633Z,3616
2018-05-24T12:39:54.036Z,3352
2018-05-24T12:40:55.443Z,3960
2018-05-24T12:41:56.896Z,3356
2018-05-24T12:42:58.252Z,3348
2018-05-24T12:43:59.666Z,3812
2018-05-24T12:45:01.074Z,4848
2018-05-24T12:46:02.469Z,4516
2018-05-24T12:47:03.864Z,4340
2018-05-24T12:48:05.258Z,3864
2018-05-24T12:49:06.706Z,5152
2018-05-24T12:50:08.065Z,4292
2018-05-24T12:51:09.458Z,2640
2018-05-24T12:52:10.852Z,3156
2018-05-24T12:53:12.253Z,3304
2018-05-24T12:54:13.650Z,3208
2018-05-24T12:55:15.046Z,3228
2018-05-24T12:56:16.447Z,3492
2018-05-24T12:57:17.849Z,5784
2018-05-24T12:58:19.250Z,52160
2018-05-24T12:59:20.641Z,89856
2018-05-24T13:00:22.037Z,39712
2018-05-24T13:01:23.436Z,3476
2018-05-24T13:02:24.831Z,3688
2018-05-24T13:03:26.231Z,2856
2018-05-24T13:04:27.631Z,2888
2018-05-24T13:05:29.020Z,2844
2018-05-24T13:06:30.422Z,2892
2018-05-24T13:07:31.814Z,2792
2018-05-24T13:08:33.228Z,2804
2018-05-24T13:09:34.630Z,2804
2018-05-24T13:10:36.023Z,2860
2018-05-24T13:11:37.424Z,2808
2018-05-24T13:12:38.810Z,2744
2018-05-24T13:13:40.205Z,2928
2018-05-24T13:14:41.614Z,2812
2018-05-24T13:15:43.002Z,2880
2018-05-24T13:16:44.416Z,3144
2018-05-24T13:17:45.819Z,3296
2018-05-24T13:18:47.214Z,3436
2018-05-24T13:19:48.625Z,3432
2018-05-24T13:20:50.018Z,2776
2018-05-24T13:21:51.417Z,2528
2018-05-24T13:22:52.815Z,3052
2018-05-24T13:23:54.223Z,2796
2018-05-24T13:24:55.629Z,3080
2018-05-24T13:25:57.032Z,2640
2018-05-24T13:26:58.419Z,1860
2018-05-24T13:27:59.826Z,1972
2018-05-24T13:29:01.222Z,2284
2018-05-24T13:30:02.636Z,2176
2018-05-24T13:31:04.040Z,2032
2018-05-24T13:32:05.446Z,1976
2018-05-24T13:33:06.845Z,2084
2018-05-24T13:34:08.232Z,2144
2018-05-24T13:35:09.626Z,1952
2018-05-24T13:36:11.033Z,1952
2018-05-24T13:37:12.430Z,1892
2018-05-24T13:38:13.832Z,1932
2018-05-24T13:39:15.230Z,1896
2018-05-24T13:40:16.626Z,2000
2018-05-24T13:41:18.013Z,2144
2018-05-24T13:42:19.425Z,2040
2018-05-24T13:43:20.811Z,1828
2018-05-24T13:44:22.212Z,1900
2018-05-24T13:45:23.687Z,1908
2018-05-24T13:46:25.043Z,2136
2018-05-24T13:47:26.436Z,2080
2018-05-24T13:48:27.844Z,1932
2018-05-24T13:49:29.227Z,2124
2018-05-24T13:50:30.642Z,2400